Argusville, North Dakota
Current Conditions -  °F | °C
As of 6:53 AM on Thursday 23 Oct 2014 (Local Time) from KFAR Reporting Station
Clear Clear  
Wind Chill: 37°   Ceiling: Unl
Heat Index: 42°   Visibility: 10mi
Dew Point: 40°   Wind: 8mph
Humidity: 92%   Direction: 180°S
Pressure: 29.91"   Gusts: NA
Location:  47.05°N, 96.93°W
Report Text: KFAR 231153Z 18007KT 10SM CLR 06/04 A2991 RMK AO2 SLP132 70004 T00560044 10106 20056 53007
Loading
Personal Weather Stations






























Interactive Weather Map
Tropical Storm Tracking
New forecast layout! Learn more

10-Day Weather Forecast

Advertisements
Track Severe Weather on mobile